sensor_id;sensor_type;location;lat;lon;timestamp;P1;durP1;ratioP1;P2;durP2;ratioP2
58360;SDS011;44164;44.954;10.068;2022-08-01T00:01:42;3.45;;;1.13;;
58360;SDS011;44164;44.954;10.068;2022-08-01T00:04:08;2.60;;;1.35;;
58360;SDS011;44164;44.954;10.068;2022-08-01T00:06:34;3.13;;;1.00;;
58360;SDS011;44164;44.954;10.068;2022-08-01T00:09:01;2.08;;;1.23;;
58360;SDS011;44164;44.954;10.068;2022-08-01T00:11:27;2.53;;;1.42;;
58360;SDS011;44164;44.954;10.068;2022-08-01T00:13:53;2.00;;;1.27;;
58360;SDS011;44164;44.954;10.068;2022-08-01T00:16:19;2.40;;;1.30;;
58360;SDS011;44164;44.954;10.068;2022-08-01T00:18:49;2.72;;;1.15;;
58360;SDS011;44164;44.954;10.068;2022-08-01T00:21:16;3.70;;;1.20;;
58360;SDS011;44164;44.954;10.068;2022-08-01T00:23:42;3.22;;;1.40;;
58360;SDS011;44164;44.954;10.068;2022-08-01T00:26:09;2.40;;;1.33;;
58360;SDS011;44164;44.954;10.068;2022-08-01T00:28:35;2.42;;;1.60;;
58360;SDS011;44164;44.954;10.068;2022-08-01T00:31:01;1.42;;;0.95;;
58360;SDS011;44164;44.954;10.068;2022-08-01T00:33:27;2.28;;;1.23;;
58360;SDS011;44164;44.954;10.068;2022-08-01T00:35:53;1.77;;;1.20;;
58360;SDS011;44164;44.954;10.068;2022-08-01T00:38:19;1.73;;;1.02;;
58360;SDS011;44164;44.954;10.068;2022-08-01T00:40:45;1.98;;;0.93;;
58360;SDS011;44164;44.954;10.068;2022-08-01T00:43:11;2.40;;;1.23;;
58360;SDS011;44164;44.954;10.068;2022-08-01T00:45:38;2.30;;;1.45;;
58360;SDS011;44164;44.954;10.068;2022-08-01T00:48:04;1.58;;;1.10;;
58360;SDS011;44164;44.954;10.068;2022-08-01T00:50:30;2.67;;;1.40;;
58360;SDS011;44164;44.954;10.068;2022-08-01T00:52:57;1.65;;;1.00;;
58360;SDS011;44164;44.954;10.068;2022-08-01T00:55:31;2.70;;;1.30;;
58360;SDS011;44164;44.954;10.068;2022-08-01T00:57:57;1.90;;;1.00;;
58360;SDS011;44164;44.954;10.068;2022-08-01T01:00:24;2.38;;;1.30;;
58360;SDS011;44164;44.954;10.068;2022-08-01T01:02:51;2.13;;;1.10;;
58360;SDS011;44164;44.954;10.068;2022-08-01T01:05:17;1.40;;;0.80;;
58360;SDS011;44164;44.954;10.068;2022-08-01T01:07:56;3.35;;;1.10;;
58360;SDS011;44164;44.954;10.068;2022-08-01T01:16:11;3.78;;;1.42;;
58360;SDS011;44164;44.954;10.068;2022-08-01T01:18:47;1.50;;;1.02;;
58360;SDS011;44164;44.954;10.068;2022-08-01T01:24:13;2.55;;;1.33;;
58360;SDS011;44164;44.954;10.068;2022-08-01T01:28:08;1.52;;;0.90;;
58360;SDS011;44164;44.954;10.068;2022-08-01T01:30:08;2.47;;;1.40;;
58360;SDS011;44164;44.954;10.068;2022-08-01T01:32:44;1.90;;;1.60;;
58360;SDS011;44164;44.954;10.068;2022-08-01T01:35:20;2.20;;;1.30;;
58360;SDS011;44164;44.954;10.068;2022-08-01T01:37:49;1.40;;;1.13;;
58360;SDS011;44164;44.954;10.068;2022-08-01T01:40:20;1.63;;;1.10;;
58360;SDS011;44164;44.954;10.068;2022-08-01T01:42:46;1.85;;;1.08;;
58360;SDS011;44164;44.954;10.068;2022-08-01T01:45:13;1.80;;;1.10;;
58360;SDS011;44164;44.954;10.068;2022-08-01T01:47:39;1.48;;;0.98;;
58360;SDS011;44164;44.954;10.068;2022-08-01T01:50:07;1.90;;;1.20;;
58360;SDS011;44164;44.954;10.068;2022-08-01T01:52:34;1.63;;;1.05;;
58360;SDS011;44164;44.954;10.068;2022-08-01T01:55:01;1.83;;;1.20;;
58360;SDS011;44164;44.954;10.068;2022-08-01T01:57:31;2.45;;;1.15;;
58360;SDS011;44164;44.954;10.068;2022-08-01T01:59:58;2.35;;;1.10;;
58360;SDS011;44164;44.954;10.068;2022-08-01T02:02:26;2.20;;;1.20;;
58360;SDS011;44164;44.954;10.068;2022-08-01T02:04:52;2.05;;;1.08;;
58360;SDS011;44164;44.954;10.068;2022-08-01T02:07:21;1.60;;;1.20;;
58360;SDS011;44164;44.954;10.068;2022-08-01T02:10:06;2.00;;;1.20;;
58360;SDS011;44164;44.954;10.068;2022-08-01T02:12:33;2.17;;;1.13;;
58360;SDS011;44164;44.954;10.068;2022-08-01T02:15:03;2.13;;;1.30;;
58360;SDS011;44164;44.954;10.068;2022-08-01T02:19:57;2.22;;;1.25;;
58360;SDS011;44164;44.954;10.068;2022-08-01T02:25:21;2.40;;;1.10;;
58360;SDS011;44164;44.954;10.068;2022-08-01T02:32:58;2.03;;;1.13;;
58360;SDS011;44164;44.954;10.068;2022-08-01T02:35:28;1.83;;;1.23;;
58360;SDS011;44164;44.954;10.068;2022-08-01T02:38:01;1.77;;;1.20;;
58360;SDS011;44164;44.954;10.068;2022-08-01T02:40:28;1.73;;;1.27;;
58360;SDS011;44164;44.954;10.068;2022-08-01T02:45:23;1.85;;;1.10;;
58360;SDS011;44164;44.954;10.068;2022-08-01T02:47:52;1.63;;;0.98;;
58360;SDS011;44164;44.954;10.068;2022-08-01T02:50:21;1.90;;;1.20;;
58360;SDS011;44164;44.954;10.068;2022-08-01T02:52:49;2.22;;;1.45;;
58360;SDS011;44164;44.954;10.068;2022-08-01T02:55:17;1.85;;;1.20;;
58360;SDS011;44164;44.954;10.068;2022-08-01T02:57:43;2.15;;;1.42;;
58360;SDS011;44164;44.954;10.068;2022-08-01T03:00:11;3.50;;;1.15;;
58360;SDS011;44164;44.954;10.068;2022-08-01T03:02:37;1.80;;;1.08;;
58360;SDS011;44164;44.954;10.068;2022-08-01T03:05:05;1.85;;;1.10;;
58360;SDS011;44164;44.954;10.068;2022-08-01T03:07:32;2.00;;;1.13;;
58360;SDS011;44164;44.954;10.068;2022-08-01T03:09:58;2.47;;;1.20;;
58360;SDS011;44164;44.954;10.068;2022-08-01T03:12:25;1.80;;;1.20;;
58360;SDS011;44164;44.954;10.068;2022-08-01T03:17:20;2.75;;;1.50;;
58360;SDS011;44164;44.954;10.068;2022-08-01T03:19:47;1.80;;;1.10;;
58360;SDS011;44164;44.954;10.068;2022-08-01T03:22:14;1.92;;;1.08;;
58360;SDS011;44164;44.954;10.068;2022-08-01T03:24:42;2.20;;;1.10;;
58360;SDS011;44164;44.954;10.068;2022-08-01T03:27:10;2.70;;;1.10;;
58360;SDS011;44164;44.954;10.068;2022-08-01T03:29:37;1.95;;;1.30;;
58360;SDS011;44164;44.954;10.068;2022-08-01T03:32:04;1.70;;;1.10;;
58360;SDS011;44164;44.954;10.068;2022-08-01T03:34:31;1.77;;;1.10;;
58360;SDS011;44164;44.954;10.068;2022-08-01T03:37:08;2.30;;;1.23;;
58360;SDS011;44164;44.954;10.068;2022-08-01T03:39:41;2.33;;;1.60;;
58360;SDS011;44164;44.954;10.068;2022-08-01T03:42:14;1.92;;;1.40;;
58360;SDS011;44164;44.954;10.068;2022-08-01T03:44:43;2.08;;;1.40;;
58360;SDS011;44164;44.954;10.068;2022-08-01T03:47:14;1.83;;;1.23;;
58360;SDS011;44164;44.954;10.068;2022-08-01T03:49:42;2.15;;;1.17;;
58360;SDS011;44164;44.954;10.068;2022-08-01T03:52:09;1.85;;;1.10;;
58360;SDS011;44164;44.954;10.068;2022-08-01T03:54:37;2.25;;;1.30;;
58360;SDS011;44164;44.954;10.068;2022-08-01T03:57:06;2.03;;;0.95;;
58360;SDS011;44164;44.954;10.068;2022-08-01T03:59:34;3.08;;;1.23;;
58360;SDS011;44164;44.954;10.068;2022-08-01T04:02:02;2.10;;;1.30;;
58360;SDS011;44164;44.954;10.068;2022-08-01T04:04:28;2.92;;;1.38;;
58360;SDS011;44164;44.954;10.068;2022-08-01T04:06:55;2.38;;;1.40;;
58360;SDS011;44164;44.954;10.068;2022-08-01T04:09:21;2.40;;;1.25;;
58360;SDS011;44164;44.954;10.068;2022-08-01T04:11:47;1.75;;;1.27;;
58360;SDS011;44164;44.954;10.068;2022-08-01T04:14:14;2.00;;;1.50;;
58360;SDS011;44164;44.954;10.068;2022-08-01T04:16:40;1.77;;;1.20;;
58360;SDS011;44164;44.954;10.068;2022-08-01T04:19:06;2.38;;;1.33;;
58360;SDS011;44164;44.954;10.068;2022-08-01T04:21:33;2.38;;;1.30;;
58360;SDS011;44164;44.954;10.068;2022-08-01T04:24:05;1.80;;;0.95;;
58360;SDS011;44164;44.954;10.068;2022-08-01T04:26:35;2.90;;;1.50;;
58360;SDS011;44164;44.954;10.068;2022-08-01T04:29:02;2.03;;;1.20;;
58360;SDS011;44164;44.954;10.068;2022-08-01T04:31:30;1.80;;;1.20;;
58360;SDS011;44164;44.954;10.068;2022-08-01T04:33:57;1.88;;;1.23;;
58360;SDS011;44164;44.954;10.068;2022-08-01T04:36:25;1.80;;;1.30;;
58360;SDS011;44164;44.954;10.068;2022-08-01T04:38:52;1.85;;;1.25;;
58360;SDS011;44164;44.954;10.068;2022-08-01T04:41:21;1.58;;;1.00;;
58360;SDS011;44164;44.954;10.068;2022-08-01T04:43:48;2.20;;;1.30;;
58360;SDS011;44164;44.954;10.068;2022-08-01T04:46:16;2.22;;;1.52;;
58360;SDS011;44164;44.954;10.068;2022-08-01T04:48:43;2.13;;;1.43;;
58360;SDS011;44164;44.954;10.068;2022-08-01T04:51:11;1.77;;;1.05;;
58360;SDS011;44164;44.954;10.068;2022-08-01T04:53:38;1.83;;;1.10;;
58360;SDS011;44164;44.954;10.068;2022-08-01T04:56:05;1.95;;;1.02;;
58360;SDS011;44164;44.954;10.068;2022-08-01T04:58:31;2.15;;;1.13;;
58360;SDS011;44164;44.954;10.068;2022-08-01T05:00:57;1.73;;;1.05;;
58360;SDS011;44164;44.954;10.068;2022-08-01T05:03:23;1.83;;;1.20;;
58360;SDS011;44164;44.954;10.068;2022-08-01T05:05:49;2.00;;;1.23;;
58360;SDS011;44164;44.954;10.068;2022-08-01T05:08:15;3.35;;;1.20;;
58360;SDS011;44164;44.954;10.068;2022-08-01T05:10:42;1.40;;;1.10;;
58360;SDS011;44164;44.954;10.068;2022-08-01T05:13:08;2.88;;;1.40;;
58360;SDS011;44164;44.954;10.068;2022-08-01T05:15:35;1.70;;;1.10;;
58360;SDS011;44164;44.954;10.068;2022-08-01T05:18:02;2.05;;;1.10;;
58360;SDS011;44164;44.954;10.068;2022-08-01T05:20:29;1.93;;;1.17;;
58360;SDS011;44164;44.954;10.068;2022-08-01T05:22:55;1.55;;;1.08;;
58360;SDS011;44164;44.954;10.068;2022-08-01T05:25:21;1.75;;;1.20;;
58360;SDS011;44164;44.954;10.068;2022-08-01T05:27:49;2.10;;;1.13;;
58360;SDS011;44164;44.954;10.068;2022-08-01T05:30:15;2.00;;;1.27;;
58360;SDS011;44164;44.954;10.068;2022-08-01T05:32:41;1.70;;;1.10;;
58360;SDS011;44164;44.954;10.068;2022-08-01T05:35:08;2.00;;;1.13;;
58360;SDS011;44164;44.954;10.068;2022-08-01T05:37:34;3.38;;;1.55;;
58360;SDS011;44164;44.954;10.068;2022-08-01T05:40:00;1.60;;;1.10;;
58360;SDS011;44164;44.954;10.068;2022-08-01T05:42:27;3.15;;;1.10;;
58360;SDS011;44164;44.954;10.068;2022-08-01T05:44:53;2.10;;;1.08;;
58360;SDS011;44164;44.954;10.068;2022-08-01T05:47:19;1.70;;;1.15;;
58360;SDS011;44164;44.954;10.068;2022-08-01T05:49:45;2.90;;;1.52;;
58360;SDS011;44164;44.954;10.068;2022-08-01T05:52:11;2.47;;;1.20;;
58360;SDS011;44164;44.954;10.068;2022-08-01T05:54:37;1.35;;;0.90;;
58360;SDS011;44164;44.954;10.068;2022-08-01T05:57:04;2.20;;;1.33;;
58360;SDS011;44164;44.954;10.068;2022-08-01T05:59:30;2.00;;;1.10;;
58360;SDS011;44164;44.954;10.068;2022-08-01T06:01:56;2.00;;;1.20;;
58360;SDS011;44164;44.954;10.068;2022-08-01T06:04:22;1.60;;;1.00;;
58360;SDS011;44164;44.954;10.068;2022-08-01T06:06:48;2.45;;;1.55;;
58360;SDS011;44164;44.954;10.068;2022-08-01T06:09:14;1.88;;;1.10;;
58360;SDS011;44164;44.954;10.068;2022-08-01T06:11:40;1.83;;;1.08;;
58360;SDS011;44164;44.954;10.068;2022-08-01T06:14:07;3.65;;;1.20;;
58360;SDS011;44164;44.954;10.068;2022-08-01T06:16:33;1.70;;;0.98;;
58360;SDS011;44164;44.954;10.068;2022-08-01T06:18:59;2.13;;;1.20;;
58360;SDS011;44164;44.954;10.068;2022-08-01T06:21:25;2.92;;;1.25;;
58360;SDS011;44164;44.954;10.068;2022-08-01T06:23:51;2.33;;;1.27;;
58360;SDS011;44164;44.954;10.068;2022-08-01T06:26:18;1.80;;;1.05;;
58360;SDS011;44164;44.954;10.068;2022-08-01T06:28:44;2.45;;;1.63;;
58360;SDS011;44164;44.954;10.068;2022-08-01T06:31:11;1.70;;;1.10;;
58360;SDS011;44164;44.954;10.068;2022-08-01T06:33:39;3.15;;;1.20;;
58360;SDS011;44164;44.954;10.068;2022-08-01T06:36:05;1.50;;;0.90;;
58360;SDS011;44164;44.954;10.068;2022-08-01T06:38:31;2.83;;;1.60;;
58360;SDS011;44164;44.954;10.068;2022-08-01T06:40:57;2.08;;;1.30;;
58360;SDS011;44164;44.954;10.068;2022-08-01T06:43:23;2.65;;;1.10;;
58360;SDS011;44164;44.954;10.068;2022-08-01T06:45:49;3.40;;;1.67;;
58360;SDS011;44164;44.954;10.068;2022-08-01T06:48:16;3.53;;;1.40;;
58360;SDS011;44164;44.954;10.068;2022-08-01T06:50:42;2.47;;;1.25;;
58360;SDS011;44164;44.954;10.068;2022-08-01T06:53:08;3.47;;;1.15;;
58360;SDS011;44164;44.954;10.068;2022-08-01T06:55:34;2.60;;;1.70;;
58360;SDS011;44164;44.954;10.068;2022-08-01T06:58:00;2.58;;;1.33;;
58360;SDS011;44164;44.954;10.068;2022-08-01T07:00:26;2.65;;;1.63;;
58360;SDS011;44164;44.954;10.068;2022-08-01T07:02:53;2.58;;;1.52;;
58360;SDS011;44164;44.954;10.068;2022-08-01T07:05:21;2.20;;;1.20;;
58360;SDS011;44164;44.954;10.068;2022-08-01T07:07:47;2.35;;;1.17;;
58360;SDS011;44164;44.954;10.068;2022-08-01T07:10:14;5.22;;;1.50;;
58360;SDS011;44164;44.954;10.068;2022-08-01T07:12:40;2.80;;;1.45;;
58360;SDS011;44164;44.954;10.068;2022-08-01T07:15:07;1.65;;;1.15;;
58360;SDS011;44164;44.954;10.068;2022-08-01T07:17:38;2.85;;;1.60;;
58360;SDS011;44164;44.954;10.068;2022-08-01T07:20:08;3.15;;;1.60;;
58360;SDS011;44164;44.954;10.068;2022-08-01T07:22:36;1.75;;;1.30;;
58360;SDS011;44164;44.954;10.068;2022-08-01T07:25:05;2.30;;;1.50;;
58360;SDS011;44164;44.954;10.068;2022-08-01T07:27:32;2.50;;;1.48;;
58360;SDS011;44164;44.954;10.068;2022-08-01T07:29:58;4.45;;;1.58;;
58360;SDS011;44164;44.954;10.068;2022-08-01T07:32:24;2.45;;;1.73;;
58360;SDS011;44164;44.954;10.068;2022-08-01T07:34:51;3.05;;;1.58;;
58360;SDS011;44164;44.954;10.068;2022-08-01T07:37:17;2.50;;;1.50;;
58360;SDS011;44164;44.954;10.068;2022-08-01T07:39:43;2.45;;;1.50;;
58360;SDS011;44164;44.954;10.068;2022-08-01T07:42:09;2.38;;;1.52;;
58360;SDS011;44164;44.954;10.068;2022-08-01T07:44:35;3.25;;;2.13;;
58360;SDS011;44164;44.954;10.068;2022-08-01T07:47:02;6.05;;;2.03;;
58360;SDS011;44164;44.954;10.068;2022-08-01T07:49:29;2.10;;;1.33;;
58360;SDS011;44164;44.954;10.068;2022-08-01T07:51:55;3.13;;;1.30;;
58360;SDS011;44164;44.954;10.068;2022-08-01T07:54:21;3.15;;;2.08;;
58360;SDS011;44164;44.954;10.068;2022-08-01T07:59:15;3.67;;;1.60;;
58360;SDS011;44164;44.954;10.068;2022-08-01T08:01:41;4.82;;;1.55;;
58360;SDS011;44164;44.954;10.068;2022-08-01T08:04:13;2.60;;;1.80;;
58360;SDS011;44164;44.954;10.068;2022-08-01T08:06:39;2.00;;;1.50;;
58360;SDS011;44164;44.954;10.068;2022-08-01T08:09:06;4.57;;;1.50;;
58360;SDS011;44164;44.954;10.068;2022-08-01T08:11:32;2.33;;;1.63;;
58360;SDS011;44164;44.954;10.068;2022-08-01T08:13:59;3.33;;;1.65;;
58360;SDS011;44164;44.954;10.068;2022-08-01T08:16:25;2.38;;;1.63;;
58360;SDS011;44164;44.954;10.068;2022-08-01T08:18:52;1.90;;;1.33;;
58360;SDS011;44164;44.954;10.068;2022-08-01T08:21:18;2.58;;;1.63;;
58360;SDS011;44164;44.954;10.068;2022-08-01T08:23:44;2.65;;;1.85;;
58360;SDS011;44164;44.954;10.068;2022-08-01T08:26:29;4.22;;;2.30;;
58360;SDS011;44164;44.954;10.068;2022-08-01T08:28:55;3.60;;;2.30;;
58360;SDS011;44164;44.954;10.068;2022-08-01T08:31:21;2.63;;;2.20;;
58360;SDS011;44164;44.954;10.068;2022-08-01T08:33:48;5.47;;;1.98;;
58360;SDS011;44164;44.954;10.068;2022-08-01T08:36:14;5.10;;;2.20;;
58360;SDS011;44164;44.954;10.068;2022-08-01T08:38:40;3.67;;;1.80;;
58360;SDS011;44164;44.954;10.068;2022-08-01T08:41:06;3.53;;;1.92;;
58360;SDS011;44164;44.954;10.068;2022-08-01T08:43:33;3.55;;;2.05;;
58360;SDS011;44164;44.954;10.068;2022-08-01T08:46:01;5.80;;;2.03;;
58360;SDS011;44164;44.954;10.068;2022-08-01T08:48:27;2.30;;;1.67;;
58360;SDS011;44164;44.954;10.068;2022-08-01T08:50:54;2.97;;;1.80;;
58360;SDS011;44164;44.954;10.068;2022-08-01T08:53:20;2.75;;;1.90;;
58360;SDS011;44164;44.954;10.068;2022-08-01T08:55:47;3.55;;;1.58;;
58360;SDS011;44164;44.954;10.068;2022-08-01T08:58:15;3.13;;;1.63;;
58360;SDS011;44164;44.954;10.068;2022-08-01T09:00:43;2.60;;;1.92;;
58360;SDS011;44164;44.954;10.068;2022-08-01T09:03:09;2.35;;;1.70;;
58360;SDS011;44164;44.954;10.068;2022-08-01T09:05:36;2.85;;;1.83;;
58360;SDS011;44164;44.954;10.068;2022-08-01T09:08:02;4.97;;;1.60;;
58360;SDS011;44164;44.954;10.068;2022-08-01T09:10:35;2.42;;;1.65;;
58360;SDS011;44164;44.954;10.068;2022-08-01T09:15:44;2.13;;;1.45;;
58360;SDS011;44164;44.954;10.068;2022-08-01T09:18:25;3.17;;;1.60;;
58360;SDS011;44164;44.954;10.068;2022-08-01T09:23:47;2.50;;;1.50;;
58360;SDS011;44164;44.954;10.068;2022-08-01T09:26:18;4.60;;;1.40;;
58360;SDS011;44164;44.954;10.068;2022-08-01T09:28:46;2.22;;;1.27;;
58360;SDS011;44164;44.954;10.068;2022-08-01T09:31:14;2.72;;;1.80;;
58360;SDS011;44164;44.954;10.068;2022-08-01T09:36:18;2.25;;;1.67;;
58360;SDS011;44164;44.954;10.068;2022-08-01T09:38:46;2.83;;;1.42;;
58360;SDS011;44164;44.954;10.068;2022-08-01T09:41:12;2.13;;;1.33;;
58360;SDS011;44164;44.954;10.068;2022-08-01T09:43:38;2.30;;;1.40;;
58360;SDS011;44164;44.954;10.068;2022-08-01T09:46:08;1.90;;;1.23;;
58360;SDS011;44164;44.954;10.068;2022-08-01T09:48:37;2.85;;;1.40;;
58360;SDS011;44164;44.954;10.068;2022-08-01T09:51:05;2.30;;;1.48;;
58360;SDS011;44164;44.954;10.068;2022-08-01T09:53:40;2.65;;;1.60;;
58360;SDS011;44164;44.954;10.068;2022-08-01T09:56:09;2.60;;;1.55;;
58360;SDS011;44164;44.954;10.068;2022-08-01T09:58:55;2.40;;;1.75;;
58360;SDS011;44164;44.954;10.068;2022-08-01T10:01:23;3.75;;;1.50;;
58360;SDS011;44164;44.954;10.068;2022-08-01T10:04:06;4.30;;;1.83;;
58360;SDS011;44164;44.954;10.068;2022-08-01T10:06:34;3.53;;;1.10;;
58360;SDS011;44164;44.954;10.068;2022-08-01T10:09:01;3.50;;;1.30;;
58360;SDS011;44164;44.954;10.068;2022-08-01T10:11:28;2.00;;;1.30;;
58360;SDS011;44164;44.954;10.068;2022-08-01T10:13:55;3.72;;;1.35;;
58360;SDS011;44164;44.954;10.068;2022-08-01T10:16:22;2.42;;;1.45;;
58360;SDS011;44164;44.954;10.068;2022-08-01T10:18:49;1.55;;;1.10;;
58360;SDS011;44164;44.954;10.068;2022-08-01T10:21:16;2.78;;;1.40;;
58360;SDS011;44164;44.954;10.068;2022-08-01T10:23:43;2.08;;;1.30;;
58360;SDS011;44164;44.954;10.068;2022-08-01T10:26:20;2.20;;;1.10;;
58360;SDS011;44164;44.954;10.068;2022-08-01T10:28:47;3.43;;;1.33;;
58360;SDS011;44164;44.954;10.068;2022-08-01T10:31:14;2.50;;;1.30;;
58360;SDS011;44164;44.954;10.068;2022-08-01T10:33:42;2.60;;;1.48;;
58360;SDS011;44164;44.954;10.068;2022-08-01T10:36:09;5.43;;;1.53;;
58360;SDS011;44164;44.954;10.068;2022-08-01T10:38:36;3.40;;;1.63;;
58360;SDS011;44164;44.954;10.068;2022-08-01T10:41:03;2.47;;;1.40;;
58360;SDS011;44164;44.954;10.068;2022-08-01T10:43:30;2.33;;;1.10;;
58360;SDS011;44164;44.954;10.068;2022-08-01T10:45:56;2.03;;;1.20;;
58360;SDS011;44164;44.954;10.068;2022-08-01T10:51:06;1.70;;;1.10;;
58360;SDS011;44164;44.954;10.068;2022-08-01T10:53:32;3.25;;;1.40;;
58360;SDS011;44164;44.954;10.068;2022-08-01T10:55:59;2.58;;;1.13;;
58360;SDS011;44164;44.954;10.068;2022-08-01T11:06:50;3.65;;;1.58;;
58360;SDS011;44164;44.954;10.068;2022-08-01T11:09:23;2.30;;;1.38;;
58360;SDS011;44164;44.954;10.068;2022-08-01T11:14:24;2.17;;;1.20;;
58360;SDS011;44164;44.954;10.068;2022-08-01T11:16:50;1.60;;;1.00;;
58360;SDS011;44164;44.954;10.068;2022-08-01T11:19:16;2.58;;;1.65;;
58360;SDS011;44164;44.954;10.068;2022-08-01T11:32:57;2.10;;;1.23;;
58360;SDS011;44164;44.954;10.068;2022-08-01T11:35:23;2.25;;;1.17;;
58360;SDS011;44164;44.954;10.068;2022-08-01T11:37:55;2.25;;;1.27;;
58360;SDS011;44164;44.954;10.068;2022-08-01T11:40:26;2.63;;;1.50;;
58360;SDS011;44164;44.954;10.068;2022-08-01T11:45:54;2.10;;;1.30;;
58360;SDS011;44164;44.954;10.068;2022-08-01T11:48:22;3.10;;;1.17;;
58360;SDS011;44164;44.954;10.068;2022-08-01T11:50:53;1.85;;;1.20;;
58360;SDS011;44164;44.954;10.068;2022-08-01T11:53:20;1.77;;;1.02;;
58360;SDS011;44164;44.954;10.068;2022-08-01T11:55:47;1.70;;;1.10;;
58360;SDS011;44164;44.954;10.068;2022-08-01T11:58:22;4.00;;;1.25;;
58360;SDS011;44164;44.954;10.068;2022-08-01T12:00:53;2.97;;;1.17;;
58360;SDS011;44164;44.954;10.068;2022-08-01T12:03:24;5.10;;;1.15;;
58360;SDS011;44164;44.954;10.068;2022-08-01T12:05:53;1.83;;;1.10;;
58360;SDS011;44164;44.954;10.068;2022-08-01T12:08:30;2.87;;;1.40;;
58360;SDS011;44164;44.954;10.068;2022-08-01T12:11:03;8.07;;;1.63;;
58360;SDS011;44164;44.954;10.068;2022-08-01T12:13:42;2.53;;;1.30;;
58360;SDS011;44164;44.954;10.068;2022-08-01T12:16:09;4.40;;;1.30;;
58360;SDS011;44164;44.954;10.068;2022-08-01T12:18:42;2.00;;;0.95;;
58360;SDS011;44164;44.954;10.068;2022-08-01T12:21:09;4.30;;;1.30;;
58360;SDS011;44164;44.954;10.068;2022-08-01T12:23:35;5.20;;;1.55;;
58360;SDS011;44164;44.954;10.068;2022-08-01T12:26:01;3.17;;;1.30;;
58360;SDS011;44164;44.954;10.068;2022-08-01T12:28:29;4.90;;;1.60;;
58360;SDS011;44164;44.954;10.068;2022-08-01T12:30:55;4.93;;;1.65;;
58360;SDS011;44164;44.954;10.068;2022-08-01T12:33:21;4.95;;;1.88;;
58360;SDS011;44164;44.954;10.068;2022-08-01T12:35:48;10.15;;;2.58;;
58360;SDS011;44164;44.954;10.068;2022-08-01T12:38:15;6.25;;;1.98;;
58360;SDS011;44164;44.954;10.068;2022-08-01T12:40:43;4.65;;;2.10;;
58360;SDS011;44164;44.954;10.068;2022-08-01T12:43:16;7.15;;;2.28;;
58360;SDS011;44164;44.954;10.068;2022-08-01T12:45:43;8.88;;;2.80;;
58360;SDS011;44164;44.954;10.068;2022-08-01T12:50:38;6.22;;;2.78;;
58360;SDS011;44164;44.954;10.068;2022-08-01T12:53:05;5.65;;;2.70;;
58360;SDS011;44164;44.954;10.068;2022-08-01T12:55:40;3.67;;;1.90;;
58360;SDS011;44164;44.954;10.068;2022-08-01T12:58:13;4.90;;;2.05;;
58360;SDS011;44164;44.954;10.068;2022-08-01T13:00:40;4.97;;;1.88;;
58360;SDS011;44164;44.954;10.068;2022-08-01T13:03:10;7.70;;;2.40;;
58360;SDS011;44164;44.954;10.068;2022-08-01T13:05:41;6.28;;;2.17;;
58360;SDS011;44164;44.954;10.068;2022-08-01T13:08:10;6.63;;;2.35;;
58360;SDS011;44164;44.954;10.068;2022-08-01T13:10:38;8.85;;;2.33;;
58360;SDS011;44164;44.954;10.068;2022-08-01T13:13:04;3.45;;;1.70;;
58360;SDS011;44164;44.954;10.068;2022-08-01T13:15:31;6.43;;;2.40;;
58360;SDS011;44164;44.954;10.068;2022-08-01T13:20:34;4.13;;;2.17;;
58360;SDS011;44164;44.954;10.068;2022-08-01T13:23:11;5.05;;;2.25;;
58360;SDS011;44164;44.954;10.068;2022-08-01T13:25:48;6.00;;;2.20;;
58360;SDS011;44164;44.954;10.068;2022-08-01T13:28:16;4.90;;;2.10;;
58360;SDS011;44164;44.954;10.068;2022-08-01T13:30:54;5.40;;;2.30;;
58360;SDS011;44164;44.954;10.068;2022-08-01T13:33:22;6.25;;;1.75;;
58360;SDS011;44164;44.954;10.068;2022-08-01T13:38:16;4.15;;;2.13;;
58360;SDS011;44164;44.954;10.068;2022-08-01T13:40:42;6.40;;;2.50;;
58360;SDS011;44164;44.954;10.068;2022-08-01T13:43:08;2.88;;;1.75;;
58360;SDS011;44164;44.954;10.068;2022-08-01T13:45:35;4.72;;;2.22;;
58360;SDS011;44164;44.954;10.068;2022-08-01T13:48:01;7.03;;;2.22;;
58360;SDS011;44164;44.954;10.068;2022-08-01T13:50:28;5.10;;;1.98;;
58360;SDS011;44164;44.954;10.068;2022-08-01T13:52:54;4.85;;;2.10;;
58360;SDS011;44164;44.954;10.068;2022-08-01T13:55:20;3.80;;;1.95;;
58360;SDS011;44164;44.954;10.068;2022-08-01T13:57:46;4.13;;;2.20;;
58360;SDS011;44164;44.954;10.068;2022-08-01T14:00:12;5.40;;;1.80;;
58360;SDS011;44164;44.954;10.068;2022-08-01T14:02:39;5.13;;;2.63;;
58360;SDS011;44164;44.954;10.068;2022-08-01T14:05:06;4.53;;;1.70;;
58360;SDS011;44164;44.954;10.068;2022-08-01T14:07:32;4.53;;;1.95;;
58360;SDS011;44164;44.954;10.068;2022-08-01T14:09:58;4.30;;;1.83;;
58360;SDS011;44164;44.954;10.068;2022-08-01T14:12:24;3.65;;;1.92;;
58360;SDS011;44164;44.954;10.068;2022-08-01T14:14:50;5.60;;;1.80;;
58360;SDS011;44164;44.954;10.068;2022-08-01T14:17:17;3.35;;;1.63;;
58360;SDS011;44164;44.954;10.068;2022-08-01T14:19:45;3.75;;;1.73;;
58360;SDS011;44164;44.954;10.068;2022-08-01T14:22:11;4.10;;;1.73;;
58360;SDS011;44164;44.954;10.068;2022-08-01T14:24:37;3.78;;;1.77;;
58360;SDS011;44164;44.954;10.068;2022-08-01T14:27:03;4.20;;;1.98;;
58360;SDS011;44164;44.954;10.068;2022-08-01T14:29:29;4.60;;;1.90;;
58360;SDS011;44164;44.954;10.068;2022-08-01T14:31:56;4.18;;;2.00;;
58360;SDS011;44164;44.954;10.068;2022-08-01T14:34:22;3.72;;;1.58;;
58360;SDS011;44164;44.954;10.068;2022-08-01T14:36:48;4.68;;;1.80;;
58360;SDS011;44164;44.954;10.068;2022-08-01T14:39:15;4.25;;;1.80;;
58360;SDS011;44164;44.954;10.068;2022-08-01T14:41:41;3.33;;;1.65;;
58360;SDS011;44164;44.954;10.068;2022-08-01T14:44:07;5.45;;;2.15;;
58360;SDS011;44164;44.954;10.068;2022-08-01T14:46:34;5.27;;;1.90;;
58360;SDS011;44164;44.954;10.068;2022-08-01T14:49:00;3.40;;;1.55;;
58360;SDS011;44164;44.954;10.068;2022-08-01T14:51:26;7.95;;;1.95;;
58360;SDS011;44164;44.954;10.068;2022-08-01T14:53:53;4.30;;;2.00;;
58360;SDS011;44164;44.954;10.068;2022-08-01T14:56:19;3.17;;;1.50;;
58360;SDS011;44164;44.954;10.068;2022-08-01T14:58:45;4.30;;;1.85;;
58360;SDS011;44164;44.954;10.068;2022-08-01T15:01:17;4.45;;;1.67;;
58360;SDS011;44164;44.954;10.068;2022-08-01T15:03:44;3.67;;;1.73;;
58360;SDS011;44164;44.954;10.068;2022-08-01T15:06:11;3.92;;;1.88;;
58360;SDS011;44164;44.954;10.068;2022-08-01T15:08:38;3.60;;;1.70;;
58360;SDS011;44164;44.954;10.068;2022-08-01T15:11:04;4.28;;;2.03;;
58360;SDS011;44164;44.954;10.068;2022-08-01T15:13:30;3.30;;;1.70;;
58360;SDS011;44164;44.954;10.068;2022-08-01T15:15:57;6.10;;;2.50;;
58360;SDS011;44164;44.954;10.068;2022-08-01T15:18:23;4.33;;;2.03;;
58360;SDS011;44164;44.954;10.068;2022-08-01T15:20:50;5.55;;;2.38;;
58360;SDS011;44164;44.954;10.068;2022-08-01T15:23:16;6.07;;;2.17;;
58360;SDS011;44164;44.954;10.068;2022-08-01T15:25:42;2.92;;;1.92;;
58360;SDS011;44164;44.954;10.068;2022-08-01T15:28:11;4.32;;;2.15;;
58360;SDS011;44164;44.954;10.068;2022-08-01T15:30:38;4.10;;;1.95;;
58360;SDS011;44164;44.954;10.068;2022-08-01T15:33:04;4.72;;;2.15;;
58360;SDS011;44164;44.954;10.068;2022-08-01T15:35:30;4.03;;;2.03;;
58360;SDS011;44164;44.954;10.068;2022-08-01T15:37:57;4.00;;;2.20;;
58360;SDS011;44164;44.954;10.068;2022-08-01T15:40:27;4.50;;;2.50;;
58360;SDS011;44164;44.954;10.068;2022-08-01T15:42:53;4.40;;;1.90;;
58360;SDS011;44164;44.954;10.068;2022-08-01T15:45:20;3.83;;;1.95;;
58360;SDS011;44164;44.954;10.068;2022-08-01T15:47:47;3.15;;;1.90;;